createdAt,value
2022-09-21T00:03:06.309Z,9.55
2022-09-21T00:06:22.350Z,9.53
2022-09-21T00:09:34.023Z,9.52
2022-09-21T00:12:47.496Z,9.51
2022-09-21T00:15:59.773Z,9.49
2022-09-21T00:19:11.927Z,9.45
2022-09-21T00:22:23.683Z,9.43
2022-09-21T00:25:35.778Z,9.39
2022-09-21T00:28:49.395Z,9.36
2022-09-21T00:32:01.080Z,9.37
2022-09-21T00:35:14.707Z,9.33
2022-09-21T00:38:26.435Z,9.30
2022-09-21T00:41:40.067Z,9.29
2022-09-21T00:44:52.086Z,9.26
2022-09-21T00:48:04.638Z,9.24
2022-09-21T00:51:16.537Z,9.22
2022-09-21T00:54:33.719Z,9.17
2022-09-21T00:57:45.654Z,9.14
2022-09-21T01:00:57.880Z,9.13
2022-09-21T01:04:11.911Z,9.11
2022-09-21T01:07:28.627Z,9.09
2022-09-21T01:10:48.358Z,9.09
2022-09-21T01:14:15.421Z,9.07
2022-09-21T01:17:37.567Z,9.08
2022-09-21T01:21:15.612Z,9.08
2022-09-21T01:24:52.758Z,9.08
2022-09-21T01:28:29.283Z,9.09
2022-09-21T01:31:46.398Z,9.10
2022-09-21T01:35:02.316Z,9.08
2022-09-21T01:38:21.898Z,9.07
2022-09-21T01:41:37.716Z,9.03
2022-09-21T01:44:51.975Z,9.03
2022-09-21T01:48:06.493Z,9.04
2022-09-21T01:51:22.272Z,9.07
2022-09-21T01:54:39.089Z,9.06
2022-09-21T01:57:56.502Z,9.07
2022-09-21T02:01:09.178Z,9.06
2022-09-21T02:04:21.136Z,9.05
2022-09-21T02:07:33.355Z,9.07
2022-09-21T02:10:49.746Z,9.06
2022-09-21T02:14:02.933Z,9.06
2022-09-21T02:17:26.047Z,9.10
2022-09-21T02:20:42.835Z,9.10
2022-09-21T02:24:00.877Z,9.09
2022-09-21T02:27:18.643Z,9.11
2022-09-21T02:30:33.201Z,9.08
2022-09-21T02:33:55.653Z,9.09
2022-09-21T02:37:12.537Z,9.11
2022-09-21T02:40:32.460Z,9.12
2022-09-21T02:43:51.809Z,9.12
2022-09-21T02:47:08.153Z,9.10
2022-09-21T02:50:25.882Z,9.12
2022-09-21T02:53:41.776Z,9.14
2022-09-21T02:56:55.541Z,9.14
2022-09-21T03:00:08.093Z,9.16
2022-09-21T03:03:26.457Z,9.16
2022-09-21T03:06:38.382Z,9.18
2022-09-21T03:09:50.329Z,9.18
2022-09-21T03:13:05.285Z,9.19
2022-09-21T03:16:17.311Z,9.21
2022-09-21T03:19:29.288Z,9.22
2022-09-21T03:22:41.022Z,9.21
2022-09-21T03:25:56.404Z,9.22
2022-09-21T03:29:08.926Z,9.21
2022-09-21T03:32:21.407Z,9.24
2022-09-21T03:35:33.977Z,9.27
2022-09-21T03:38:45.713Z,9.28
2022-09-21T03:41:59.049Z,9.27
2022-09-21T03:45:13.476Z,9.29
2022-09-21T03:48:25.689Z,9.29
2022-09-21T03:51:37.423Z,9.30
2022-09-21T03:54:49.180Z,9.33
2022-09-21T03:58:01.562Z,9.34
2022-09-21T04:01:13.122Z,9.35
2022-09-21T04:04:24.933Z,9.37
2022-09-21T04:07:40.769Z,9.36
2022-09-21T04:10:52.567Z,9.36
2022-09-21T04:14:05.663Z,9.36
2022-09-21T04:17:17.492Z,9.38
2022-09-21T04:20:29.237Z,9.33
2022-09-21T04:23:41.315Z,9.33
2022-09-21T04:26:53.774Z,9.31
2022-09-21T04:30:07.783Z,9.31
2022-09-21T04:33:20.038Z,9.33
2022-09-21T04:36:36.685Z,9.35
2022-09-21T04:39:48.378Z,9.33
2022-09-21T04:43:01.114Z,9.35
2022-09-21T04:46:18.525Z,9.36
2022-09-21T04:49:30.557Z,9.37
2022-09-21T04:52:42.705Z,9.38
2022-09-21T04:55:55.865Z,9.42
2022-09-21T04:59:07.780Z,9.48
2022-09-21T05:02:19.432Z,9.48
2022-09-21T05:05:32.048Z,9.51
2022-09-21T05:08:59.455Z,9.51
2022-09-21T05:12:10.052Z,9.53
2022-09-21T05:15:22.261Z,9.52
2022-09-21T05:18:33.929Z,9.57
2022-09-21T05:21:46.528Z,9.63
2022-09-21T05:24:58.314Z,9.66
2022-09-21T05:28:12.599Z,9.71
2022-09-21T05:31:40.423Z,9.78
2022-09-21T05:35:01.216Z,9.81
2022-09-21T05:38:17.779Z,9.81
2022-09-21T05:41:31.272Z,9.89
2022-09-21T05:44:44.614Z,9.87
2022-09-21T05:48:10.267Z,9.91
2022-09-21T05:51:28.232Z,9.91
2022-09-21T05:54:53.525Z,9.90
2022-09-21T05:58:15.102Z,9.81
2022-09-21T06:01:38.721Z,9.83
2022-09-21T06:04:54.215Z,9.79
2022-09-21T06:08:06.004Z,9.86
2022-09-21T06:11:18.326Z,9.85
2022-09-21T06:14:29.971Z,9.83
2022-09-21T06:17:41.637Z,9.87
2022-09-21T06:28:52.458Z,9.95
2022-09-21T06:32:05.634Z,10.05
2022-09-21T06:39:17.720Z,10.02
2022-09-21T06:46:47.289Z,10.09
2022-09-21T06:49:58.897Z,10.14
2022-09-21T06:53:11.167Z,10.16
2022-09-21T07:13:10.121Z,10.40
2022-09-21T07:16:22.253Z,10.38
2022-09-21T07:19:34.017Z,10.39
2022-09-21T07:22:45.613Z,10.35
2022-09-21T07:25:57.319Z,10.35
2022-09-21T07:29:09.074Z,10.38
2022-09-21T07:32:21.689Z,10.35
2022-09-21T07:35:33.659Z,10.43
2022-09-21T07:38:47.466Z,10.54
2022-09-21T07:41:59.538Z,10.64
2022-09-21T07:45:13.717Z,10.76
2022-09-21T07:48:25.866Z,10.81
2022-09-21T07:51:37.590Z,10.81
2022-09-21T07:54:49.313Z,10.85
2022-09-21T07:58:15.661Z,10.79
2022-09-21T08:01:28.188Z,10.80
2022-09-21T08:04:40.114Z,10.88
2022-09-21T08:07:53.073Z,10.94
2022-09-21T08:11:11.928Z,10.99
2022-09-21T08:14:26.428Z,11.15
2022-09-21T08:17:38.630Z,11.28
2022-09-21T08:20:50.284Z,11.28
2022-09-21T08:24:02.016Z,11.29
2022-09-21T08:27:13.910Z,11.49
2022-09-21T08:30:27.636Z,11.73
2022-09-21T08:33:39.931Z,11.83
2022-09-21T08:36:55.530Z,11.73
2022-09-21T08:40:06.606Z,11.77
2022-09-21T08:43:22.138Z,11.75
2022-09-21T08:46:36.633Z,11.80
2022-09-21T08:49:54.105Z,11.96
2022-09-21T08:53:11.960Z,12.06
2022-09-21T08:56:36.810Z,12.07
2022-09-21T08:59:39.432Z,12.12
2022-09-21T09:03:09.201Z,12.01
2022-09-21T09:06:27.208Z,11.87
2022-09-21T09:10:10.721Z,11.96
2022-09-21T09:13:40.794Z,11.96
2022-09-21T09:17:01.207Z,11.90
2022-09-21T09:20:21.895Z,11.85
2022-09-21T09:23:38.511Z,11.87
2022-09-21T09:26:54.173Z,11.99
2022-09-21T09:30:12.701Z,11.90
2022-09-21T09:33:28.873Z,12.00
2022-09-21T09:36:57.880Z,12.03
2022-09-21T09:40:00.810Z,11.98
2022-09-21T09:43:17.163Z,11.91
2022-09-21T09:46:36.449Z,11.86
2022-09-21T09:49:57.752Z,11.79
2022-09-21T09:53:15.853Z,11.77
2022-09-21T09:56:28.817Z,11.67
2022-09-21T09:59:49.370Z,11.65
2022-09-21T10:03:02.621Z,11.64
2022-09-21T10:06:22.548Z,11.69
2022-09-21T10:09:39.323Z,11.73
2022-09-21T10:12:55.199Z,11.72
2022-09-21T10:16:14.723Z,11.82
2022-09-21T10:19:30.771Z,11.90
2022-09-21T10:22:47.317Z,11.87
2022-09-21T10:26:09.634Z,11.89
2022-09-21T10:29:47.443Z,11.92
2022-09-21T10:33:04.060Z,11.89
2022-09-21T10:36:33.817Z,11.89
2022-09-21T10:39:52.989Z,11.89
2022-09-21T10:43:06.201Z,11.92
2022-09-21T10:46:20.138Z,11.94
2022-09-21T10:49:37.148Z,11.82
2022-09-21T10:52:51.016Z,11.88
2022-09-21T10:56:16.604Z,11.85
2022-09-21T10:59:31.599Z,11.86
2022-09-21T11:02:46.653Z,11.94
2022-09-21T11:05:59.964Z,11.98
2022-09-21T11:09:16.569Z,11.97
2022-09-21T11:12:51.709Z,11.89
2022-09-21T11:16:08.846Z,11.88
2022-09-21T11:19:29.575Z,11.99
2022-09-21T11:22:47.464Z,12.01
2022-09-21T11:26:05.342Z,12.04
2022-09-21T11:29:23.328Z,12.07
2022-09-21T11:33:00.770Z,12.14
2022-09-21T11:36:20.653Z,12.21
2022-09-21T11:39:39.532Z,12.32
2022-09-21T11:43:03.568Z,12.58
2022-09-21T11:46:24.833Z,12.83
2022-09-21T11:50:30.908Z,13.17
2022-09-21T11:53:57.829Z,13.60
2022-09-21T11:57:17.331Z,14.26
2022-09-21T12:00:29.981Z,14.24
2022-09-21T12:04:13.438Z,14.63
2022-09-21T12:07:53.814Z,14.96
2022-09-21T12:11:14.102Z,14.88
2022-09-21T12:14:33.419Z,14.91
2022-09-21T12:17:55.378Z,15.37
2022-09-21T12:21:13.554Z,15.17
2022-09-21T12:24:31.959Z,14.90
2022-09-21T12:27:48.337Z,15.38
2022-09-21T12:31:03.850Z,15.84
2022-09-21T12:34:20.428Z,15.85
2022-09-21T12:37:47.308Z,15.41
2022-09-21T12:41:04.350Z,15.14
2022-09-21T12:44:21.633Z,14.89
2022-09-21T12:47:44.249Z,14.68
2022-09-21T12:51:05.029Z,14.57
2022-09-21T12:54:21.697Z,14.40
2022-09-21T12:57:58.611Z,14.24
2022-09-21T13:01:06.323Z,14.28
2022-09-21T13:04:49.871Z,14.35
2022-09-21T13:08:16.463Z,14.35
2022-09-21T13:11:29.504Z,14.42
2022-09-21T13:14:46.204Z,14.54
2022-09-21T13:18:22.238Z,14.61
2022-09-21T13:21:36.648Z,14.56
2022-09-21T13:28:46.261Z,14.47
2022-09-21T13:32:04.714Z,14.32
2022-09-21T13:35:55.559Z,14.28
2022-09-21T13:39:26.248Z,14.13
2022-09-21T13:42:55.138Z,13.94
2022-09-21T13:46:07.414Z,13.86
2022-09-21T13:49:31.395Z,13.81
2022-09-21T13:52:50.861Z,13.74
2022-09-21T13:56:10.915Z,13.68
2022-09-21T13:59:30.444Z,13.71
2022-09-21T14:02:46.045Z,13.71
2022-09-21T14:06:03.265Z,13.76
2022-09-21T14:09:27.581Z,13.79
2022-09-21T14:12:45.626Z,13.78
2022-09-21T14:16:09.403Z,13.89
2022-09-21T14:20:11.082Z,14.03
2022-09-21T14:23:36.664Z,14.23
2022-09-21T14:27:19.205Z,14.45
2022-09-21T14:30:34.093Z,14.54
2022-09-21T14:33:55.084Z,14.50
2022-09-21T14:37:13.012Z,14.43
2022-09-21T14:40:31.829Z,14.20
2022-09-21T14:43:45.094Z,13.63
2022-09-21T14:47:28.497Z,13.21
2022-09-21T14:50:45.314Z,12.76
2022-09-21T14:54:22.196Z,12.72
2022-09-21T14:58:02.634Z,12.71
2022-09-21T15:01:46.335Z,12.67
2022-09-21T15:05:30.319Z,12.74
2022-09-21T15:09:09.647Z,12.79
2022-09-21T15:12:27.565Z,12.68
2022-09-21T15:15:48.424Z,12.57
2022-09-21T15:19:20.448Z,12.48
2022-09-21T15:22:33.235Z,12.45
2022-09-21T15:25:46.579Z,12.38
2022-09-21T15:29:18.357Z,12.37
2022-09-21T15:32:31.338Z,12.31
2022-09-21T15:35:43.457Z,12.19
2022-09-21T15:39:00.027Z,12.14
2022-09-21T15:42:31.522Z,12.08
2022-09-21T15:45:55.143Z,12.03
2022-09-21T15:49:09.954Z,12.05
2022-09-21T15:52:32.460Z,12.10
2022-09-21T15:55:47.938Z,12.13
2022-09-21T15:59:09.230Z,12.15
2022-09-21T16:02:24.600Z,12.10
2022-09-21T16:05:38.656Z,12.02
2022-09-21T16:08:50.733Z,12.00
2022-09-21T16:12:03.321Z,11.90
2022-09-21T16:15:33.257Z,11.79
2022-09-21T16:18:55.287Z,11.65
2022-09-21T16:22:14.390Z,11.55
2022-09-21T16:25:38.487Z,11.53
2022-09-21T16:28:50.538Z,11.43
2022-09-21T16:32:34.385Z,11.32
2022-09-21T16:35:48.191Z,11.30
2022-09-21T16:39:00.470Z,11.11
2022-09-21T16:42:15.215Z,11.16
2022-09-21T16:45:32.997Z,11.10
2022-09-21T16:48:44.962Z,10.97
2022-09-21T16:51:58.244Z,10.88
2022-09-21T16:55:11.391Z,10.85
2022-09-21T16:58:24.618Z,10.83
2022-09-21T17:01:36.399Z,10.78
2022-09-21T17:04:49.021Z,10.74
2022-09-21T17:08:03.141Z,10.71
2022-09-21T17:11:18.062Z,10.69
2022-09-21T17:14:35.569Z,10.64
2022-09-21T17:17:47.704Z,10.59
2022-09-21T17:20:59.499Z,10.53
2022-09-21T17:24:27.519Z,10.55
2022-09-21T17:27:29.227Z,10.58
2022-09-21T17:30:42.628Z,10.56
2022-09-21T17:33:57.425Z,10.57
2022-09-21T17:37:10.576Z,10.55
2022-09-21T17:40:25.362Z,10.48
2022-09-21T17:43:47.838Z,10.50
2022-09-21T17:47:07.090Z,10.52
2022-09-21T17:50:30.486Z,10.52
2022-09-21T17:53:43.729Z,10.51
2022-09-21T17:57:01.994Z,10.53
2022-09-21T18:00:23.585Z,10.54
2022-09-21T18:03:41.435Z,10.52
2022-09-21T18:06:54.768Z,10.51
2022-09-21T18:10:08.248Z,10.49
2022-09-21T18:13:31.847Z,10.50
2022-09-21T18:16:53.020Z,10.50
2022-09-21T18:20:15.251Z,10.50
2022-09-21T18:23:40.173Z,10.46
2022-09-21T18:26:54.198Z,10.42
2022-09-21T18:30:08.040Z,10.41
2022-09-21T18:33:24.977Z,10.43
2022-09-21T18:36:43.356Z,10.48
2022-09-21T18:40:02.721Z,10.41
2022-09-21T18:43:26.070Z,10.39
2022-09-21T18:46:50.857Z,10.39
2022-09-21T18:50:10.101Z,10.37
2022-09-21T18:53:30.871Z,10.34
2022-09-21T18:56:47.568Z,10.37
2022-09-21T19:00:01.277Z,10.34
2022-09-21T19:03:19.868Z,10.29
2022-09-21T19:06:46.730Z,10.30
2022-09-21T19:10:10.552Z,10.26
2022-09-21T19:13:40.543Z,10.25
2022-09-21T19:17:04.575Z,10.18
2022-09-21T19:20:46.924Z,10.16
2022-09-21T19:24:12.117Z,10.13
2022-09-21T19:27:33.017Z,10.09
2022-09-21T19:30:46.827Z,10.05
2022-09-21T19:33:59.464Z,10.03
2022-09-21T19:37:12.039Z,10.04
2022-09-21T19:40:27.928Z,10.01
2022-09-21T20:01:22.335Z,9.96
2022-09-21T20:04:40.684Z,9.97
2022-09-21T20:07:59.163Z,9.97
2022-09-21T20:15:46.735Z,10.00
2022-09-21T20:19:03.904Z,10.01
2022-09-21T20:22:21.550Z,10.03
2022-09-21T20:25:38.685Z,10.03
2022-09-21T20:28:54.289Z,10.00
2022-09-21T20:32:06.773Z,10.02
2022-09-21T20:35:24.364Z,10.01
2022-09-21T20:38:37.258Z,10.01
2022-09-21T20:41:49.697Z,10.00
2022-09-21T20:45:02.547Z,10.00
2022-09-21T20:48:21.349Z,9.99
2022-09-21T20:51:33.353Z,9.99
2022-09-21T20:54:49.015Z,9.99
2022-09-21T20:57:59.634Z,9.95
2022-09-21T21:01:12.856Z,9.96
2022-09-21T21:04:24.663Z,9.97
2022-09-21T21:07:37.196Z,9.92
2022-09-21T21:10:53.450Z,9.92
2022-09-21T21:14:05.512Z,9.89
2022-09-21T21:17:18.546Z,9.87
2022-09-21T21:20:30.968Z,9.86
2022-09-21T21:23:53.473Z,9.89
2022-09-21T21:27:05.208Z,9.88
2022-09-21T21:30:19.271Z,9.83
2022-09-21T21:33:31.076Z,9.85
2022-09-21T21:36:43.133Z,9.84
2022-09-21T21:39:55.026Z,9.83
2022-09-21T21:43:06.746Z,9.83
2022-09-21T21:46:18.531Z,9.81
2022-09-21T21:49:31.341Z,9.82
2022-09-21T21:52:45.150Z,9.84
2022-09-21T21:55:59.080Z,9.84
2022-09-21T21:59:15.397Z,9.83
2022-09-21T22:02:24.924Z,9.76
2022-09-21T22:05:38.373Z,9.82
2022-09-21T22:08:50.128Z,9.80
2022-09-21T22:12:03.933Z,9.79
2022-09-21T22:15:18.827Z,9.75
2022-09-21T22:18:32.614Z,9.70
2022-09-21T22:21:53.187Z,9.63
2022-09-21T22:24:59.432Z,9.55
2022-09-21T22:28:11.459Z,9.52
2022-09-21T22:31:27.042Z,9.53
2022-09-21T22:34:40.030Z,9.52
2022-09-21T22:37:52.832Z,9.51
2022-09-21T22:41:10.871Z,9.50
2022-09-21T22:44:22.798Z,9.50
2022-09-21T22:47:34.378Z,9.47
2022-09-21T22:50:48.976Z,9.42
2022-09-21T22:54:01.610Z,9.39
2022-09-21T22:57:14.639Z,9.41
2022-09-21T23:00:26.378Z,9.40
2022-09-21T23:03:38.461Z,9.39
2022-09-21T23:06:52.189Z,9.38
2022-09-21T23:10:03.858Z,9.35
2022-09-21T23:13:16.049Z,9.33
2022-09-21T23:16:28.749Z,9.32
2022-09-21T23:19:40.597Z,9.30
2022-09-21T23:22:52.177Z,9.28
2022-09-21T23:26:13.205Z,9.29
2022-09-21T23:29:25.364Z,9.26
2022-09-21T23:32:36.980Z,9.25
2022-09-21T23:35:49.834Z,9.20
2022-09-21T23:39:02.236Z,9.19
2022-09-21T23:42:14.330Z,9.16
2022-09-21T23:45:25.994Z,9.11
2022-09-21T23:48:38.688Z,9.09
2022-09-21T23:51:50.384Z,9.07
2022-09-21T23:55:01.897Z,9.06
2022-09-21T23:58:15.515Z,9.02
